sensor_id;sensor_type;location;lat;lon;timestamp;pressure;altitude;pressure_sealevel;temperature;humidity
6514;BME280;3290;47.716;9.070;2023-04-22T00:02:01;96375.34;;;12.24;100.00
6514;BME280;3290;47.716;9.070;2023-04-22T00:04:27;96365.31;;;12.21;100.00
6514;BME280;3290;47.716;9.070;2023-04-22T00:06:52;96368.75;;;12.22;100.00
6514;BME280;3290;47.716;9.070;2023-04-22T00:09:17;96373.19;;;11.77;100.00
6514;BME280;3290;47.716;9.070;2023-04-22T00:11:43;96366.81;;;11.73;100.00
6514;BME280;3290;47.716;9.070;2023-04-22T00:14:08;96370.63;;;11.66;100.00
6514;BME280;3290;47.716;9.070;2023-04-22T00:16:33;96369.75;;;11.60;100.00
6514;BME280;3290;47.716;9.070;2023-04-22T00:18:59;96368.69;;;11.61;100.00
6514;BME280;3290;47.716;9.070;2023-04-22T00:21:24;96367.25;;;11.43;100.00
6514;BME280;3290;47.716;9.070;2023-04-22T00:23:50;96362.16;;;11.25;100.00
6514;BME280;3290;47.716;9.070;2023-04-22T00:26:16;96365.72;;;11.19;100.00
6514;BME280;3290;47.716;9.070;2023-04-22T00:28:41;96374.25;;;11.26;100.00
6514;BME280;3290;47.716;9.070;2023-04-22T00:31:06;96374.44;;;11.47;100.00
6514;BME280;3290;47.716;9.070;2023-04-22T00:33:32;96365.78;;;11.47;100.00
6514;BME280;3290;47.716;9.070;2023-04-22T00:35:57;96366.06;;;11.61;100.00
6514;BME280;3290;47.716;9.070;2023-04-22T00:38:22;96367.28;;;11.70;100.00
6514;BME280;3290;47.716;9.070;2023-04-22T00:40:48;96364.72;;;11.59;100.00
6514;BME280;3290;47.716;9.070;2023-04-22T00:43:15;96363.50;;;11.39;100.00
6514;BME280;3290;47.716;9.070;2023-04-22T00:45:41;96369.84;;;11.15;100.00
6514;BME280;3290;47.716;9.070;2023-04-22T00:48:07;96369.47;;;11.23;100.00
6514;BME280;3290;47.716;9.070;2023-04-22T00:50:32;96369.06;;;11.42;100.00
6514;BME280;3290;47.716;9.070;2023-04-22T00:52:57;96364.44;;;11.33;100.00
6514;BME280;3290;47.716;9.070;2023-04-22T00:55:23;96362.31;;;11.18;100.00
6514;BME280;3290;47.716;9.070;2023-04-22T00:57:50;96365.06;;;11.01;100.00
6514;BME280;3290;47.716;9.070;2023-04-22T01:00:16;96363.72;;;10.87;100.00
6514;BME280;3290;47.716;9.070;2023-04-22T01:02:44;96360.41;;;10.91;100.00
6514;BME280;3290;47.716;9.070;2023-04-22T01:05:10;96369.16;;;11.08;100.00
6514;BME280;3290;47.716;9.070;2023-04-22T01:07:36;96363.13;;;10.96;100.00
6514;BME280;3290;47.716;9.070;2023-04-22T01:10:02;96369.50;;;11.00;100.00
6514;BME280;3290;47.716;9.070;2023-04-22T01:12:27;96369.94;;;11.09;100.00
6514;BME280;3290;47.716;9.070;2023-04-22T01:14:53;96377.22;;;11.18;100.00
6514;BME280;3290;47.716;9.070;2023-04-22T01:17:18;96374.84;;;11.17;100.00
6514;BME280;3290;47.716;9.070;2023-04-22T01:19:46;96374.38;;;11.19;100.00
6514;BME280;3290;47.716;9.070;2023-04-22T01:22:13;96366.75;;;10.95;100.00
6514;BME280;3290;47.716;9.070;2023-04-22T01:24:38;96364.97;;;10.73;100.00
6514;BME280;3290;47.716;9.070;2023-04-22T01:27:04;96376.81;;;10.76;100.00
6514;BME280;3290;47.716;9.070;2023-04-22T01:29:30;96378.84;;;10.96;100.00
6514;BME280;3290;47.716;9.070;2023-04-22T01:31:56;96374.50;;;11.13;100.00
6514;BME280;3290;47.716;9.070;2023-04-22T01:34:21;96375.06;;;11.04;100.00
6514;BME280;3290;47.716;9.070;2023-04-22T01:36:48;96365.53;;;10.75;100.00
6514;BME280;3290;47.716;9.070;2023-04-22T01:39:13;96369.53;;;10.43;100.00
6514;BME280;3290;47.716;9.070;2023-04-22T01:41:39;96370.53;;;10.42;100.00
6514;BME280;3290;47.716;9.070;2023-04-22T01:44:05;96374.06;;;10.48;100.00
6514;BME280;3290;47.716;9.070;2023-04-22T01:46:32;96366.78;;;10.61;100.00
6514;BME280;3290;47.716;9.070;2023-04-22T01:48:57;96369.19;;;10.63;100.00
6514;BME280;3290;47.716;9.070;2023-04-22T01:51:22;96372.34;;;10.53;100.00
6514;BME280;3290;47.716;9.070;2023-04-22T01:53:49;96370.00;;;10.52;100.00
6514;BME280;3290;47.716;9.070;2023-04-22T01:56:15;96374.97;;;10.42;100.00
6514;BME280;3290;47.716;9.070;2023-04-22T01:58:40;96377.03;;;10.40;100.00
6514;BME280;3290;47.716;9.070;2023-04-22T02:01:10;96377.03;;;10.51;100.00
6514;BME280;3290;47.716;9.070;2023-04-22T02:03:36;96373.50;;;10.69;100.00
6514;BME280;3290;47.716;9.070;2023-04-22T02:06:02;96367.34;;;10.63;100.00
6514;BME280;3290;47.716;9.070;2023-04-22T02:08:27;96367.00;;;10.37;100.00
6514;BME280;3290;47.716;9.070;2023-04-22T02:10:53;96363.47;;;10.32;100.00
6514;BME280;3290;47.716;9.070;2023-04-22T02:13:18;96361.41;;;10.34;100.00
6514;BME280;3290;47.716;9.070;2023-04-22T02:15:44;96363.34;;;10.15;100.00
6514;BME280;3290;47.716;9.070;2023-04-22T02:18:09;96367.91;;;10.31;100.00
6514;BME280;3290;47.716;9.070;2023-04-22T02:20:35;96364.25;;;10.21;100.00
6514;BME280;3290;47.716;9.070;2023-04-22T02:23:01;96365.31;;;10.31;100.00
6514;BME280;3290;47.716;9.070;2023-04-22T02:25:28;96367.00;;;10.26;100.00
6514;BME280;3290;47.716;9.070;2023-04-22T02:27:53;96369.44;;;10.09;100.00
6514;BME280;3290;47.716;9.070;2023-04-22T02:30:18;96368.69;;;10.20;100.00
6514;BME280;3290;47.716;9.070;2023-04-22T02:32:44;96365.44;;;10.36;100.00
6514;BME280;3290;47.716;9.070;2023-04-22T02:35:10;96369.88;;;10.47;100.00
6514;BME280;3290;47.716;9.070;2023-04-22T02:37:36;96369.53;;;10.55;100.00
6514;BME280;3290;47.716;9.070;2023-04-22T02:40:02;96364.47;;;10.19;100.00
6514;BME280;3290;47.716;9.070;2023-04-22T02:42:28;96373.56;;;10.05;100.00
6514;BME280;3290;47.716;9.070;2023-04-22T02:44:53;96366.91;;;9.92;100.00
6514;BME280;3290;47.716;9.070;2023-04-22T02:47:19;96368.31;;;10.05;100.00
6514;BME280;3290;47.716;9.070;2023-04-22T02:49:44;96360.03;;;10.08;100.00
6514;BME280;3290;47.716;9.070;2023-04-22T02:52:09;96362.41;;;10.10;100.00
6514;BME280;3290;47.716;9.070;2023-04-22T02:54:35;96363.44;;;9.80;100.00
6514;BME280;3290;47.716;9.070;2023-04-22T02:57:00;96370.91;;;9.94;100.00
6514;BME280;3290;47.716;9.070;2023-04-22T02:59:27;96372.59;;;9.89;100.00
6514;BME280;3290;47.716;9.070;2023-04-22T03:01:52;96371.31;;;9.91;100.00
6514;BME280;3290;47.716;9.070;2023-04-22T03:04:18;96371.88;;;9.82;100.00
6514;BME280;3290;47.716;9.070;2023-04-22T03:06:49;96379.00;;;9.93;100.00
6514;BME280;3290;47.716;9.070;2023-04-22T03:09:14;96369.78;;;10.01;100.00
6514;BME280;3290;47.716;9.070;2023-04-22T03:11:40;96376.38;;;9.93;100.00
6514;BME280;3290;47.716;9.070;2023-04-22T03:14:05;96376.41;;;9.75;100.00
6514;BME280;3290;47.716;9.070;2023-04-22T03:16:31;96376.03;;;9.71;100.00
6514;BME280;3290;47.716;9.070;2023-04-22T03:18:57;96366.09;;;9.62;100.00
6514;BME280;3290;47.716;9.070;2023-04-22T03:21:22;96370.00;;;9.71;100.00
6514;BME280;3290;47.716;9.070;2023-04-22T03:23:47;96369.97;;;9.89;100.00
6514;BME280;3290;47.716;9.070;2023-04-22T03:26:13;96371.44;;;9.56;100.00
6514;BME280;3290;47.716;9.070;2023-04-22T03:28:38;96374.50;;;9.64;100.00
6514;BME280;3290;47.716;9.070;2023-04-22T03:31:04;96382.06;;;9.72;100.00
6514;BME280;3290;47.716;9.070;2023-04-22T03:33:30;96388.63;;;9.92;100.00
6514;BME280;3290;47.716;9.070;2023-04-22T03:36:15;96385.06;;;9.87;100.00
6514;BME280;3290;47.716;9.070;2023-04-22T03:38:41;96383.41;;;9.63;100.00
6514;BME280;3290;47.716;9.070;2023-04-22T03:41:06;96382.06;;;9.72;100.00
6514;BME280;3290;47.716;9.070;2023-04-22T03:43:31;96389.34;;;9.70;100.00
6514;BME280;3290;47.716;9.070;2023-04-22T03:45:58;96388.31;;;9.71;100.00
6514;BME280;3290;47.716;9.070;2023-04-22T03:48:23;96378.94;;;9.63;100.00
6514;BME280;3290;47.716;9.070;2023-04-22T03:50:49;96383.78;;;9.31;100.00
6514;BME280;3290;47.716;9.070;2023-04-22T03:53:15;96384.47;;;9.26;100.00
6514;BME280;3290;47.716;9.070;2023-04-22T03:55:41;96388.31;;;9.42;100.00
6514;BME280;3290;47.716;9.070;2023-04-22T03:58:06;96401.06;;;9.50;100.00
6514;BME280;3290;47.716;9.070;2023-04-22T04:00:32;96403.41;;;9.69;100.00
6514;BME280;3290;47.716;9.070;2023-04-22T04:02:57;96406.53;;;9.77;100.00
6514;BME280;3290;47.716;9.070;2023-04-22T04:05:23;96399.03;;;9.81;100.00
6514;BME280;3290;47.716;9.070;2023-04-22T04:07:48;96409.72;;;9.79;100.00
6514;BME280;3290;47.716;9.070;2023-04-22T04:10:13;96409.66;;;9.86;100.00
6514;BME280;3290;47.716;9.070;2023-04-22T04:12:39;96414.94;;;9.79;100.00
6514;BME280;3290;47.716;9.070;2023-04-22T04:15:04;96421.56;;;9.82;100.00
6514;BME280;3290;47.716;9.070;2023-04-22T04:17:30;96420.63;;;9.76;100.00
6514;BME280;3290;47.716;9.070;2023-04-22T04:19:55;96413.28;;;9.56;100.00
6514;BME280;3290;47.716;9.070;2023-04-22T04:22:21;96412.41;;;9.44;100.00
6514;BME280;3290;47.716;9.070;2023-04-22T04:24:46;96415.44;;;9.41;100.00
6514;BME280;3290;47.716;9.070;2023-04-22T04:27:13;96410.34;;;9.63;100.00
6514;BME280;3290;47.716;9.070;2023-04-22T04:29:38;96411.88;;;9.53;100.00
6514;BME280;3290;47.716;9.070;2023-04-22T04:32:06;96410.38;;;9.10;100.00
6514;BME280;3290;47.716;9.070;2023-04-22T04:34:32;96403.50;;;8.98;100.00
6514;BME280;3290;47.716;9.070;2023-04-22T04:37:01;96414.09;;;9.20;100.00
6514;BME280;3290;47.716;9.070;2023-04-22T04:39:27;96409.13;;;9.48;100.00
6514;BME280;3290;47.716;9.070;2023-04-22T04:41:52;96409.72;;;9.50;100.00
6514;BME280;3290;47.716;9.070;2023-04-22T04:44:23;96408.75;;;9.62;100.00
6514;BME280;3290;47.716;9.070;2023-04-22T04:46:48;96413.53;;;9.65;100.00
6514;BME280;3290;47.716;9.070;2023-04-22T04:49:14;96419.81;;;9.76;100.00
6514;BME280;3290;47.716;9.070;2023-04-22T04:51:40;96416.03;;;9.90;100.00
6514;BME280;3290;47.716;9.070;2023-04-22T04:54:06;96426.66;;;9.77;100.00
6514;BME280;3290;47.716;9.070;2023-04-22T04:56:31;96419.00;;;9.46;100.00
6514;BME280;3290;47.716;9.070;2023-04-22T04:58:57;96413.63;;;9.23;100.00
6514;BME280;3290;47.716;9.070;2023-04-22T05:01:25;96415.81;;;9.26;100.00
6514;BME280;3290;47.716;9.070;2023-04-22T05:03:50;96415.25;;;9.24;100.00
6514;BME280;3290;47.716;9.070;2023-04-22T05:06:16;96412.91;;;9.17;100.00
6514;BME280;3290;47.716;9.070;2023-04-22T05:08:41;96412.19;;;9.45;100.00
6514;BME280;3290;47.716;9.070;2023-04-22T05:11:07;96420.50;;;9.71;100.00
6514;BME280;3290;47.716;9.070;2023-04-22T05:13:32;96423.03;;;9.78;100.00
6514;BME280;3290;47.716;9.070;2023-04-22T05:15:57;96421.88;;;9.74;100.00
6514;BME280;3290;47.716;9.070;2023-04-22T05:18:24;96433.31;;;9.91;100.00
6514;BME280;3290;47.716;9.070;2023-04-22T05:20:49;96423.19;;;10.12;100.00
6514;BME280;3290;47.716;9.070;2023-04-22T05:23:14;96419.78;;;10.11;100.00
6514;BME280;3290;47.716;9.070;2023-04-22T05:25:40;96420.03;;;10.21;100.00
6514;BME280;3290;47.716;9.070;2023-04-22T05:28:05;96424.06;;;10.58;100.00
6514;BME280;3290;47.716;9.070;2023-04-22T05:30:30;96428.66;;;10.62;100.00
6514;BME280;3290;47.716;9.070;2023-04-22T05:32:56;96426.03;;;10.96;100.00
6514;BME280;3290;47.716;9.070;2023-04-22T05:35:21;96432.53;;;11.17;100.00
6514;BME280;3290;47.716;9.070;2023-04-22T05:37:47;96432.53;;;11.17;100.00
6514;BME280;3290;47.716;9.070;2023-04-22T05:40:12;96434.81;;;11.13;100.00
6514;BME280;3290;47.716;9.070;2023-04-22T05:42:37;96428.53;;;11.14;100.00
6514;BME280;3290;47.716;9.070;2023-04-22T05:45:03;96434.69;;;11.08;100.00
6514;BME280;3290;47.716;9.070;2023-04-22T05:47:29;96438.47;;;11.01;100.00
6514;BME280;3290;47.716;9.070;2023-04-22T05:49:54;96441.84;;;11.13;100.00
6514;BME280;3290;47.716;9.070;2023-04-22T05:52:20;96443.56;;;11.07;100.00
6514;BME280;3290;47.716;9.070;2023-04-22T05:54:45;96435.94;;;11.06;100.00
6514;BME280;3290;47.716;9.070;2023-04-22T05:57:10;96432.88;;;11.20;100.00
6514;BME280;3290;47.716;9.070;2023-04-22T05:59:36;96427.81;;;11.30;100.00
6514;BME280;3290;47.716;9.070;2023-04-22T06:02:02;96428.28;;;11.50;100.00
6514;BME280;3290;47.716;9.070;2023-04-22T06:04:27;96434.78;;;11.47;100.00
6514;BME280;3290;47.716;9.070;2023-04-22T06:06:52;96428.81;;;11.63;100.00
6514;BME280;3290;47.716;9.070;2023-04-22T06:09:19;96421.75;;;11.91;100.00
6514;BME280;3290;47.716;9.070;2023-04-22T06:11:45;96420.84;;;11.97;100.00
6514;BME280;3290;47.716;9.070;2023-04-22T06:14:10;96416.88;;;11.83;100.00
6514;BME280;3290;47.716;9.070;2023-04-22T06:16:37;96411.75;;;11.88;100.00
6514;BME280;3290;47.716;9.070;2023-04-22T06:19:02;96414.16;;;11.78;100.00
6514;BME280;3290;47.716;9.070;2023-04-22T06:21:28;96422.66;;;11.69;100.00
6514;BME280;3290;47.716;9.070;2023-04-22T06:23:53;96419.78;;;11.70;100.00
6514;BME280;3290;47.716;9.070;2023-04-22T06:26:18;96415.84;;;11.84;100.00
6514;BME280;3290;47.716;9.070;2023-04-22T06:28:44;96406.84;;;11.80;100.00
6514;BME280;3290;47.716;9.070;2023-04-22T06:31:10;96407.22;;;12.00;100.00
6514;BME280;3290;47.716;9.070;2023-04-22T06:33:35;96413.41;;;11.94;100.00
6514;BME280;3290;47.716;9.070;2023-04-22T06:36:01;96422.41;;;11.70;100.00
6514;BME280;3290;47.716;9.070;2023-04-22T06:38:26;96425.81;;;12.26;100.00
6514;BME280;3290;47.716;9.070;2023-04-22T06:40:51;96443.78;;;12.18;100.00
6514;BME280;3290;47.716;9.070;2023-04-22T06:43:17;96448.25;;;12.17;100.00
6514;BME280;3290;47.716;9.070;2023-04-22T06:45:42;96456.22;;;11.95;100.00
6514;BME280;3290;47.716;9.070;2023-04-22T06:48:07;96465.94;;;12.22;100.00
6514;BME280;3290;47.716;9.070;2023-04-22T06:50:33;96467.59;;;12.72;100.00
6514;BME280;3290;47.716;9.070;2023-04-22T06:52:58;96452.66;;;12.88;100.00
6514;BME280;3290;47.716;9.070;2023-04-22T06:55:23;96454.00;;;12.91;100.00
6514;BME280;3290;47.716;9.070;2023-04-22T06:57:49;96460.81;;;12.59;100.00
6514;BME280;3290;47.716;9.070;2023-04-22T07:00:15;96467.16;;;12.91;100.00
6514;BME280;3290;47.716;9.070;2023-04-22T07:02:41;96462.19;;;12.78;100.00
6514;BME280;3290;47.716;9.070;2023-04-22T07:05:06;96467.75;;;12.65;100.00
6514;BME280;3290;47.716;9.070;2023-04-22T07:07:32;96463.16;;;12.72;100.00
6514;BME280;3290;47.716;9.070;2023-04-22T07:09:57;96459.78;;;12.60;100.00
6514;BME280;3290;47.716;9.070;2023-04-22T07:12:22;96462.94;;;12.90;100.00
6514;BME280;3290;47.716;9.070;2023-04-22T07:14:49;96467.66;;;12.88;100.00
6514;BME280;3290;47.716;9.070;2023-04-22T07:17:15;96470.66;;;12.96;100.00
6514;BME280;3290;47.716;9.070;2023-04-22T07:19:43;96479.50;;;13.07;100.00
6514;BME280;3290;47.716;9.070;2023-04-22T07:22:09;96471.88;;;13.43;100.00
6514;BME280;3290;47.716;9.070;2023-04-22T07:24:34;96476.91;;;13.44;100.00
6514;BME280;3290;47.716;9.070;2023-04-22T07:26:59;96479.81;;;13.64;100.00
6514;BME280;3290;47.716;9.070;2023-04-22T07:29:26;96474.38;;;13.54;99.35
6514;BME280;3290;47.716;9.070;2023-04-22T07:31:52;96468.72;;;13.83;95.98
6514;BME280;3290;47.716;9.070;2023-04-22T07:34:17;96474.19;;;14.19;95.70
6514;BME280;3290;47.716;9.070;2023-04-22T07:36:43;96469.72;;;14.20;95.71
6514;BME280;3290;47.716;9.070;2023-04-22T07:39:08;96467.13;;;14.25;95.89
6514;BME280;3290;47.716;9.070;2023-04-22T07:41:34;96467.94;;;14.25;95.02
6514;BME280;3290;47.716;9.070;2023-04-22T07:44:00;96458.22;;;14.57;95.00
6514;BME280;3290;47.716;9.070;2023-04-22T07:46:27;96446.03;;;15.13;91.19
6514;BME280;3290;47.716;9.070;2023-04-22T07:48:52;96445.94;;;14.98;88.03
6514;BME280;3290;47.716;9.070;2023-04-22T07:51:18;96443.69;;;15.62;86.19
6514;BME280;3290;47.716;9.070;2023-04-22T07:53:43;96444.31;;;15.28;87.67
6514;BME280;3290;47.716;9.070;2023-04-22T07:56:08;96454.78;;;15.55;83.77
6514;BME280;3290;47.716;9.070;2023-04-22T07:58:34;96458.13;;;15.40;82.71
6514;BME280;3290;47.716;9.070;2023-04-22T08:00:59;96456.97;;;15.72;82.59
6514;BME280;3290;47.716;9.070;2023-04-22T08:03:24;96458.22;;;15.60;83.21
6514;BME280;3290;47.716;9.070;2023-04-22T08:05:50;96467.00;;;14.93;83.51
6514;BME280;3290;47.716;9.070;2023-04-22T08:08:15;96456.44;;;14.93;83.29
6514;BME280;3290;47.716;9.070;2023-04-22T08:10:41;96455.00;;;15.12;82.87
6514;BME280;3290;47.716;9.070;2023-04-22T08:13:06;96447.22;;;15.27;82.15
6514;BME280;3290;47.716;9.070;2023-04-22T08:15:31;96450.22;;;15.09;84.82
6514;BME280;3290;47.716;9.070;2023-04-22T08:17:57;96456.28;;;15.41;82.71
6514;BME280;3290;47.716;9.070;2023-04-22T08:20:23;96441.53;;;15.50;80.54
6514;BME280;3290;47.716;9.070;2023-04-22T08:22:48;96447.19;;;15.68;79.24
6514;BME280;3290;47.716;9.070;2023-04-22T08:25:15;96448.50;;;15.70;80.85
6514;BME280;3290;47.716;9.070;2023-04-22T08:27:40;96441.97;;;15.83;77.80
6514;BME280;3290;47.716;9.070;2023-04-22T08:30:06;96442.16;;;16.22;77.15
6514;BME280;3290;47.716;9.070;2023-04-22T08:32:32;96437.72;;;17.12;73.54
6514;BME280;3290;47.716;9.070;2023-04-22T08:34:57;96437.72;;;17.22;72.33
6514;BME280;3290;47.716;9.070;2023-04-22T08:37:24;96440.91;;;16.84;72.55
6514;BME280;3290;47.716;9.070;2023-04-22T08:39:50;96449.09;;;17.32;71.26
6514;BME280;3290;47.716;9.070;2023-04-22T08:42:16;96442.69;;;17.63;69.62
6514;BME280;3290;47.716;9.070;2023-04-22T08:44:44;96439.34;;;18.10;66.70
6514;BME280;3290;47.716;9.070;2023-04-22T08:47:10;96450.28;;;17.89;67.33
6514;BME280;3290;47.716;9.070;2023-04-22T08:49:36;96449.91;;;17.03;71.95
6514;BME280;3290;47.716;9.070;2023-04-22T08:52:02;96453.59;;;17.07;72.22
6514;BME280;3290;47.716;9.070;2023-04-22T08:54:27;96451.47;;;17.28;68.88
6514;BME280;3290;47.716;9.070;2023-04-22T08:56:53;96442.50;;;17.29;70.02
6514;BME280;3290;47.716;9.070;2023-04-22T08:59:20;96441.41;;;17.16;69.24
6514;BME280;3290;47.716;9.070;2023-04-22T09:01:50;96428.94;;;17.56;69.41
6514;BME280;3290;47.716;9.070;2023-04-22T09:04:17;96426.78;;;17.63;69.28
6514;BME280;3290;47.716;9.070;2023-04-22T09:06:42;96423.63;;;18.23;68.84
6514;BME280;3290;47.716;9.070;2023-04-22T09:09:08;96419.66;;;18.64;65.96
6514;BME280;3290;47.716;9.070;2023-04-22T09:11:34;96423.19;;;18.87;64.95
6514;BME280;3290;47.716;9.070;2023-04-22T09:14:01;96427.28;;;18.75;64.85
6514;BME280;3290;47.716;9.070;2023-04-22T09:16:29;96419.81;;;19.15;63.92
6514;BME280;3290;47.716;9.070;2023-04-22T09:18:56;96409.06;;;19.76;63.41
6514;BME280;3290;47.716;9.070;2023-04-22T09:21:24;96415.69;;;20.02;60.03
6514;BME280;3290;47.716;9.070;2023-04-22T09:23:53;96414.09;;;20.01;62.04
6514;BME280;3290;47.716;9.070;2023-04-22T09:26:23;96411.44;;;19.55;62.25
6514;BME280;3290;47.716;9.070;2023-04-22T09:31:15;96421.25;;;20.06;57.89
6514;BME280;3290;47.716;9.070;2023-04-22T09:33:40;96415.69;;;20.02;59.23
6514;BME280;3290;47.716;9.070;2023-04-22T09:36:09;96411.69;;;20.23;60.30
6514;BME280;3290;47.716;9.070;2023-04-22T09:38:34;96407.75;;;20.39;58.00
6514;BME280;3290;47.716;9.070;2023-04-22T09:41:00;96404.41;;;20.10;58.21
6514;BME280;3290;47.716;9.070;2023-04-22T09:43:25;96410.75;;;20.32;58.03
6514;BME280;3290;47.716;9.070;2023-04-22T09:45:51;96402.69;;;20.19;52.85
6514;BME280;3290;47.716;9.070;2023-04-22T09:48:18;96408.09;;;19.67;55.72
6514;BME280;3290;47.716;9.070;2023-04-22T09:50:48;96396.69;;;19.67;57.98
6514;BME280;3290;47.716;9.070;2023-04-22T09:53:16;96399.47;;;20.22;58.17
6514;BME280;3290;47.716;9.070;2023-04-22T09:55:45;96393.34;;;20.76;55.56
6514;BME280;3290;47.716;9.070;2023-04-22T09:58:13;96387.22;;;20.03;55.04
6514;BME280;3290;47.716;9.070;2023-04-22T10:00:41;96398.19;;;20.38;54.35
6514;BME280;3290;47.716;9.070;2023-04-22T10:03:06;96391.44;;;19.85;52.62
6514;BME280;3290;47.716;9.070;2023-04-22T10:05:32;96391.75;;;20.20;50.15
6514;BME280;3290;47.716;9.070;2023-04-22T10:08:03;96387.44;;;19.60;50.84
6514;BME280;3290;47.716;9.070;2023-04-22T10:10:29;96390.19;;;19.55;52.32
6514;BME280;3290;47.716;9.070;2023-04-22T10:12:55;96381.97;;;20.52;50.08
6514;BME280;3290;47.716;9.070;2023-04-22T10:15:20;96380.13;;;20.16;51.18
6514;BME280;3290;47.716;9.070;2023-04-22T10:17:49;96376.66;;;20.34;49.70
6514;BME280;3290;47.716;9.070;2023-04-22T10:20:17;96379.53;;;20.38;50.66
6514;BME280;3290;47.716;9.070;2023-04-22T10:22:44;96363.56;;;21.06;48.39
6514;BME280;3290;47.716;9.070;2023-04-22T10:25:11;96371.75;;;20.59;48.09
6514;BME280;3290;47.716;9.070;2023-04-22T10:27:37;96367.88;;;20.52;46.71
6514;BME280;3290;47.716;9.070;2023-04-22T10:30:03;96369.59;;;20.61;48.67
6514;BME280;3290;47.716;9.070;2023-04-22T10:32:29;96364.47;;;20.83;46.87
6514;BME280;3290;47.716;9.070;2023-04-22T10:35:10;96370.38;;;21.12;45.59
6514;BME280;3290;47.716;9.070;2023-04-22T10:37:36;96365.94;;;21.07;45.61
6514;BME280;3290;47.716;9.070;2023-04-22T10:40:09;96360.09;;;21.50;44.70
6514;BME280;3290;47.716;9.070;2023-04-22T10:42:39;96362.19;;;22.15;43.96
6514;BME280;3290;47.716;9.070;2023-04-22T10:45:04;96360.69;;;21.47;45.14
6514;BME280;3290;47.716;9.070;2023-04-22T10:47:36;96359.03;;;21.33;45.91
6514;BME280;3290;47.716;9.070;2023-04-22T10:52:59;96351.94;;;21.28;45.54
6514;BME280;3290;47.716;9.070;2023-04-22T10:55:48;96358.94;;;21.11;46.93
6514;BME280;3290;47.716;9.070;2023-04-22T10:58:23;96353.97;;;21.90;44.28
6514;BME280;3290;47.716;9.070;2023-04-22T11:00:51;96347.31;;;22.01;44.03
6514;BME280;3290;47.716;9.070;2023-04-22T11:03:26;96358.47;;;22.03;44.38
6514;BME280;3290;47.716;9.070;2023-04-22T11:06:18;96354.97;;;22.42;43.70
6514;BME280;3290;47.716;9.070;2023-04-22T11:08:47;96366.03;;;21.74;44.92
6514;BME280;3290;47.716;9.070;2023-04-22T11:11:16;96352.59;;;21.79;44.66
6514;BME280;3290;47.716;9.070;2023-04-22T11:13:41;96359.25;;;21.23;45.19
6514;BME280;3290;47.716;9.070;2023-04-22T11:16:11;96361.31;;;21.26;45.25
6514;BME280;3290;47.716;9.070;2023-04-22T11:18:37;96361.34;;;22.06;44.59
6514;BME280;3290;47.716;9.070;2023-04-22T11:21:04;96355.13;;;22.10;45.13
6514;BME280;3290;47.716;9.070;2023-04-22T11:23:33;96357.34;;;22.65;42.22
6514;BME280;3290;47.716;9.070;2023-04-22T11:26:04;96358.91;;;21.96;43.39
6514;BME280;3290;47.716;9.070;2023-04-22T11:28:30;96355.44;;;22.44;41.96
6514;BME280;3290;47.716;9.070;2023-04-22T11:31:06;96351.28;;;22.73;41.53
6514;BME280;3290;47.716;9.070;2023-04-22T11:33:33;96352.13;;;22.82;40.32
6514;BME280;3290;47.716;9.070;2023-04-22T11:35:59;96350.91;;;22.66;41.13
6514;BME280;3290;47.716;9.070;2023-04-22T11:38:25;96342.94;;;22.53;41.22
6514;BME280;3290;47.716;9.070;2023-04-22T11:40:50;96342.69;;;22.41;41.39
6514;BME280;3290;47.716;9.070;2023-04-22T11:43:15;96330.22;;;22.72;41.26
6514;BME280;3290;47.716;9.070;2023-04-22T11:45:42;96326.41;;;23.55;40.58
6514;BME280;3290;47.716;9.070;2023-04-22T11:48:09;96335.53;;;23.15;41.93
6514;BME280;3290;47.716;9.070;2023-04-22T11:50:40;96329.22;;;23.88;40.28
6514;BME280;3290;47.716;9.070;2023-04-22T11:55:40;96333.53;;;24.14;41.12
6514;BME280;3290;47.716;9.070;2023-04-22T11:58:15;96332.47;;;24.41;40.33
6514;BME280;3290;47.716;9.070;2023-04-22T12:00:42;96322.19;;;24.17;38.30
6514;BME280;3290;47.716;9.070;2023-04-22T12:05:46;96330.03;;;23.59;41.66
6514;BME280;3290;47.716;9.070;2023-04-22T12:08:19;96324.13;;;23.32;40.14
6514;BME280;3290;47.716;9.070;2023-04-22T12:10:47;96330.97;;;23.93;40.20
6514;BME280;3290;47.716;9.070;2023-04-22T12:13:18;96333.56;;;24.56;39.98
6514;BME280;3290;47.716;9.070;2023-04-22T12:15:44;96330.09;;;23.29;37.30
6514;BME280;3290;47.716;9.070;2023-04-22T12:18:09;96335.47;;;22.85;39.79
6514;BME280;3290;47.716;9.070;2023-04-22T12:20:38;96336.03;;;23.56;40.11
6514;BME280;3290;47.716;9.070;2023-04-22T12:23:04;96334.38;;;24.57;36.13
6514;BME280;3290;47.716;9.070;2023-04-22T12:25:29;96334.69;;;24.39;38.18
6514;BME280;3290;47.716;9.070;2023-04-22T12:27:58;96336.34;;;24.10;38.67
6514;BME280;3290;47.716;9.070;2023-04-22T12:30:23;96338.63;;;24.33;39.13
6514;BME280;3290;47.716;9.070;2023-04-22T12:32:49;96337.50;;;24.34;37.10
6514;BME280;3290;47.716;9.070;2023-04-22T12:35:15;96344.47;;;24.35;37.39
6514;BME280;3290;47.716;9.070;2023-04-22T12:37:41;96346.16;;;24.22;39.31
6514;BME280;3290;47.716;9.070;2023-04-22T12:40:07;96345.41;;;23.36;41.21
6514;BME280;3290;47.716;9.070;2023-04-22T12:42:33;96343.81;;;24.29;40.66
6514;BME280;3290;47.716;9.070;2023-04-22T12:44:58;96343.94;;;24.24;41.84
6514;BME280;3290;47.716;9.070;2023-04-22T12:47:24;96343.50;;;23.67;40.58
6514;BME280;3290;47.716;9.070;2023-04-22T12:49:49;96341.72;;;24.18;40.12
6514;BME280;3290;47.716;9.070;2023-04-22T12:52:14;96341.47;;;24.61;39.39
6514;BME280;3290;47.716;9.070;2023-04-22T12:54:40;96340.66;;;24.86;39.62
6514;BME280;3290;47.716;9.070;2023-04-22T12:57:05;96341.25;;;24.24;39.68
6514;BME280;3290;47.716;9.070;2023-04-22T12:59:31;96343.47;;;24.22;39.82
6514;BME280;3290;47.716;9.070;2023-04-22T13:01:56;96343.91;;;24.16;41.50
6514;BME280;3290;47.716;9.070;2023-04-22T13:04:21;96342.19;;;24.03;40.02
6514;BME280;3290;47.716;9.070;2023-04-22T13:06:47;96344.34;;;23.16;41.28
6514;BME280;3290;47.716;9.070;2023-04-22T13:09:15;96349.25;;;23.22;41.52
6514;BME280;3290;47.716;9.070;2023-04-22T13:11:40;96343.31;;;23.64;41.93
6514;BME280;3290;47.716;9.070;2023-04-22T13:14:05;96335.06;;;23.52;42.72
6514;BME280;3290;47.716;9.070;2023-04-22T13:16:31;96332.28;;;23.27;43.53
6514;BME280;3290;47.716;9.070;2023-04-22T13:18:56;96332.63;;;23.03;43.30
6514;BME280;3290;47.716;9.070;2023-04-22T13:21:21;96333.91;;;22.84;44.25
6514;BME280;3290;47.716;9.070;2023-04-22T13:23:47;96331.63;;;22.34;44.23